sensor_id;sensor_type;location;lat;lon;timestamp;P1;durP1;ratioP1;P2;durP2;ratioP2
10761;SDS011;5433;50.862;4.320;2022-07-29T00:00:13;3.97;;;1.70;;
10761;SDS011;5433;50.862;4.320;2022-07-29T00:02:39;4.28;;;1.52;;
10761;SDS011;5433;50.862;4.320;2022-07-29T00:05:05;1.95;;;1.38;;
10761;SDS011;5433;50.862;4.320;2022-07-29T00:07:31;6.50;;;1.67;;
10761;SDS011;5433;50.862;4.320;2022-07-29T00:09:57;3.22;;;1.50;;
10761;SDS011;5433;50.862;4.320;2022-07-29T00:12:24;5.03;;;1.80;;
10761;SDS011;5433;50.862;4.320;2022-07-29T00:14:50;4.75;;;1.70;;
10761;SDS011;5433;50.862;4.320;2022-07-29T00:17:16;2.92;;;2.00;;
10761;SDS011;5433;50.862;4.320;2022-07-29T00:19:42;3.58;;;1.75;;
10761;SDS011;5433;50.862;4.320;2022-07-29T00:22:08;2.53;;;1.55;;
10761;SDS011;5433;50.862;4.320;2022-07-29T00:24:34;2.25;;;1.40;;
10761;SDS011;5433;50.862;4.320;2022-07-29T00:27:00;2.80;;;1.50;;
10761;SDS011;5433;50.862;4.320;2022-07-29T00:29:26;3.10;;;1.60;;
10761;SDS011;5433;50.862;4.320;2022-07-29T00:31:52;3.60;;;1.50;;
10761;SDS011;5433;50.862;4.320;2022-07-29T00:34:18;4.97;;;1.60;;
10761;SDS011;5433;50.862;4.320;2022-07-29T00:37:03;3.35;;;1.50;;
10761;SDS011;5433;50.862;4.320;2022-07-29T00:39:29;2.30;;;1.50;;
10761;SDS011;5433;50.862;4.320;2022-07-29T00:41:55;3.72;;;1.55;;
10761;SDS011;5433;50.862;4.320;2022-07-29T00:44:21;3.72;;;1.70;;
10761;SDS011;5433;50.862;4.320;2022-07-29T00:46:47;3.90;;;1.50;;
10761;SDS011;5433;50.862;4.320;2022-07-29T00:49:13;5.65;;;1.70;;
10761;SDS011;5433;50.862;4.320;2022-07-29T00:51:39;3.53;;;1.63;;
10761;SDS011;5433;50.862;4.320;2022-07-29T00:54:06;2.13;;;1.65;;
10761;SDS011;5433;50.862;4.320;2022-07-29T00:56:32;4.60;;;1.73;;
10761;SDS011;5433;50.862;4.320;2022-07-29T00:58:59;3.97;;;1.85;;
10761;SDS011;5433;50.862;4.320;2022-07-29T01:01:25;3.67;;;1.52;;
10761;SDS011;5433;50.862;4.320;2022-07-29T01:03:51;4.82;;;1.80;;
10761;SDS011;5433;50.862;4.320;2022-07-29T01:06:18;3.22;;;1.60;;
10761;SDS011;5433;50.862;4.320;2022-07-29T01:08:47;4.25;;;1.65;;
10761;SDS011;5433;50.862;4.320;2022-07-29T01:11:17;7.18;;;1.77;;
10761;SDS011;5433;50.862;4.320;2022-07-29T01:13:44;3.13;;;1.70;;
10761;SDS011;5433;50.862;4.320;2022-07-29T01:16:12;3.78;;;1.58;;
10761;SDS011;5433;50.862;4.320;2022-07-29T01:18:39;3.42;;;1.50;;
10761;SDS011;5433;50.862;4.320;2022-07-29T01:21:21;3.33;;;1.70;;
10761;SDS011;5433;50.862;4.320;2022-07-29T01:29:02;3.67;;;1.50;;
10761;SDS011;5433;50.862;4.320;2022-07-29T01:31:38;4.00;;;1.60;;
10761;SDS011;5433;50.862;4.320;2022-07-29T01:34:05;4.70;;;1.50;;
10761;SDS011;5433;50.862;4.320;2022-07-29T01:39:05;4.93;;;1.67;;
10761;SDS011;5433;50.862;4.320;2022-07-29T01:41:32;2.92;;;1.70;;
10761;SDS011;5433;50.862;4.320;2022-07-29T01:44:22;3.47;;;1.83;;
10761;SDS011;5433;50.862;4.320;2022-07-29T01:46:51;2.63;;;1.70;;
10761;SDS011;5433;50.862;4.320;2022-07-29T01:49:20;3.75;;;1.55;;
10761;SDS011;5433;50.862;4.320;2022-07-29T01:51:51;4.10;;;1.95;;
10761;SDS011;5433;50.862;4.320;2022-07-29T01:54:20;2.20;;;1.58;;
10761;SDS011;5433;50.862;4.320;2022-07-29T01:56:47;2.47;;;1.67;;
10761;SDS011;5433;50.862;4.320;2022-07-29T01:59:14;2.10;;;1.70;;
10761;SDS011;5433;50.862;4.320;2022-07-29T02:01:41;4.47;;;1.73;;
10761;SDS011;5433;50.862;4.320;2022-07-29T02:04:09;3.08;;;1.60;;
10761;SDS011;5433;50.862;4.320;2022-07-29T02:06:37;3.63;;;1.70;;
10761;SDS011;5433;50.862;4.320;2022-07-29T02:09:03;3.72;;;1.90;;
10761;SDS011;5433;50.862;4.320;2022-07-29T02:11:31;4.88;;;1.60;;
10761;SDS011;5433;50.862;4.320;2022-07-29T02:13:59;2.97;;;1.63;;
10761;SDS011;5433;50.862;4.320;2022-07-29T02:16:25;4.15;;;1.85;;
10761;SDS011;5433;50.862;4.320;2022-07-29T02:18:53;3.13;;;1.73;;
10761;SDS011;5433;50.862;4.320;2022-07-29T02:21:21;4.20;;;1.80;;
10761;SDS011;5433;50.862;4.320;2022-07-29T02:23:48;2.67;;;1.70;;
10761;SDS011;5433;50.862;4.320;2022-07-29T02:26:16;4.35;;;1.80;;
10761;SDS011;5433;50.862;4.320;2022-07-29T02:28:42;5.85;;;1.70;;
10761;SDS011;5433;50.862;4.320;2022-07-29T02:31:09;10.57;;;2.20;;
10761;SDS011;5433;50.862;4.320;2022-07-29T02:33:36;7.30;;;2.10;;
10761;SDS011;5433;50.862;4.320;2022-07-29T02:36:03;8.65;;;1.95;;
10761;SDS011;5433;50.862;4.320;2022-07-29T02:38:29;6.18;;;1.88;;
10761;SDS011;5433;50.862;4.320;2022-07-29T02:41:16;4.75;;;1.63;;
10761;SDS011;5433;50.862;4.320;2022-07-29T02:43:43;4.28;;;1.90;;
10761;SDS011;5433;50.862;4.320;2022-07-29T02:46:18;3.45;;;1.80;;
10761;SDS011;5433;50.862;4.320;2022-07-29T02:51:41;3.53;;;1.80;;
10761;SDS011;5433;50.862;4.320;2022-07-29T02:54:08;2.17;;;1.80;;
10761;SDS011;5433;50.862;4.320;2022-07-29T02:56:35;3.33;;;1.95;;
10761;SDS011;5433;50.862;4.320;2022-07-29T02:59:03;3.85;;;2.13;;
10761;SDS011;5433;50.862;4.320;2022-07-29T03:01:30;2.55;;;1.60;;
10761;SDS011;5433;50.862;4.320;2022-07-29T03:03:57;4.03;;;1.95;;
10761;SDS011;5433;50.862;4.320;2022-07-29T03:06:25;4.70;;;2.25;;
10761;SDS011;5433;50.862;4.320;2022-07-29T03:08:52;2.00;;;1.70;;
10761;SDS011;5433;50.862;4.320;2022-07-29T03:11:19;4.00;;;1.88;;
10761;SDS011;5433;50.862;4.320;2022-07-29T03:13:45;2.80;;;2.10;;
10761;SDS011;5433;50.862;4.320;2022-07-29T03:16:12;3.70;;;2.05;;
10761;SDS011;5433;50.862;4.320;2022-07-29T03:18:38;4.47;;;2.10;;
10761;SDS011;5433;50.862;4.320;2022-07-29T03:21:04;4.88;;;2.05;;
10761;SDS011;5433;50.862;4.320;2022-07-29T03:23:30;2.65;;;1.88;;
10761;SDS011;5433;50.862;4.320;2022-07-29T03:25:57;3.08;;;2.00;;
10761;SDS011;5433;50.862;4.320;2022-07-29T03:28:23;3.80;;;2.20;;
10761;SDS011;5433;50.862;4.320;2022-07-29T03:30:49;3.22;;;1.90;;
10761;SDS011;5433;50.862;4.320;2022-07-29T03:33:15;2.40;;;1.95;;
10761;SDS011;5433;50.862;4.320;2022-07-29T03:35:42;3.60;;;2.33;;
10761;SDS011;5433;50.862;4.320;2022-07-29T03:38:08;3.38;;;2.22;;
10761;SDS011;5433;50.862;4.320;2022-07-29T03:40:47;6.32;;;2.40;;
10761;SDS011;5433;50.862;4.320;2022-07-29T03:43:14;3.00;;;2.30;;
10761;SDS011;5433;50.862;4.320;2022-07-29T03:45:42;4.80;;;2.40;;
10761;SDS011;5433;50.862;4.320;2022-07-29T03:48:10;6.80;;;2.20;;
10761;SDS011;5433;50.862;4.320;2022-07-29T03:50:38;5.53;;;2.13;;
10761;SDS011;5433;50.862;4.320;2022-07-29T03:53:04;5.45;;;2.30;;
10761;SDS011;5433;50.862;4.320;2022-07-29T03:55:32;4.80;;;2.30;;
10761;SDS011;5433;50.862;4.320;2022-07-29T03:58:00;4.25;;;2.60;;
10761;SDS011;5433;50.862;4.320;2022-07-29T04:00:27;4.60;;;2.20;;
10761;SDS011;5433;50.862;4.320;2022-07-29T04:02:53;2.90;;;2.28;;
10761;SDS011;5433;50.862;4.320;2022-07-29T04:05:19;4.28;;;2.30;;
10761;SDS011;5433;50.862;4.320;2022-07-29T04:07:46;5.13;;;2.53;;
10761;SDS011;5433;50.862;4.320;2022-07-29T04:10:13;4.78;;;2.45;;
10761;SDS011;5433;50.862;4.320;2022-07-29T04:12:40;4.38;;;2.47;;
10761;SDS011;5433;50.862;4.320;2022-07-29T04:15:06;4.07;;;2.25;;
10761;SDS011;5433;50.862;4.320;2022-07-29T04:17:33;7.07;;;2.83;;
10761;SDS011;5433;50.862;4.320;2022-07-29T04:19:59;5.30;;;3.10;;
10761;SDS011;5433;50.862;4.320;2022-07-29T04:22:25;7.57;;;2.78;;
10761;SDS011;5433;50.862;4.320;2022-07-29T04:24:51;3.92;;;2.58;;
10761;SDS011;5433;50.862;4.320;2022-07-29T04:27:17;6.72;;;2.90;;
10761;SDS011;5433;50.862;4.320;2022-07-29T04:29:44;6.55;;;3.03;;
10761;SDS011;5433;50.862;4.320;2022-07-29T04:32:10;4.95;;;2.70;;
10761;SDS011;5433;50.862;4.320;2022-07-29T04:34:36;4.55;;;2.60;;
10761;SDS011;5433;50.862;4.320;2022-07-29T04:37:02;7.00;;;2.58;;
10761;SDS011;5433;50.862;4.320;2022-07-29T04:39:28;4.57;;;2.88;;
10761;SDS011;5433;50.862;4.320;2022-07-29T04:41:54;4.45;;;2.70;;
10761;SDS011;5433;50.862;4.320;2022-07-29T04:44:20;5.85;;;2.90;;
10761;SDS011;5433;50.862;4.320;2022-07-29T04:46:46;4.63;;;2.53;;
10761;SDS011;5433;50.862;4.320;2022-07-29T04:49:12;9.98;;;2.85;;
10761;SDS011;5433;50.862;4.320;2022-07-29T04:51:39;2.60;;;2.38;;
10761;SDS011;5433;50.862;4.320;2022-07-29T04:54:05;5.10;;;2.78;;
10761;SDS011;5433;50.862;4.320;2022-07-29T04:56:31;4.10;;;2.60;;
10761;SDS011;5433;50.862;4.320;2022-07-29T04:58:57;4.32;;;2.40;;
10761;SDS011;5433;50.862;4.320;2022-07-29T05:01:23;4.90;;;2.53;;
10761;SDS011;5433;50.862;4.320;2022-07-29T05:03:49;4.43;;;2.50;;
10761;SDS011;5433;50.862;4.320;2022-07-29T05:06:15;3.83;;;2.30;;
10761;SDS011;5433;50.862;4.320;2022-07-29T05:08:41;6.47;;;2.92;;
10761;SDS011;5433;50.862;4.320;2022-07-29T05:11:07;4.60;;;2.58;;
10761;SDS011;5433;50.862;4.320;2022-07-29T05:13:33;3.42;;;2.58;;
10761;SDS011;5433;50.862;4.320;2022-07-29T05:15:59;4.85;;;2.70;;
10761;SDS011;5433;50.862;4.320;2022-07-29T05:18:25;4.55;;;2.72;;
10761;SDS011;5433;50.862;4.320;2022-07-29T05:20:51;5.03;;;2.45;;
10761;SDS011;5433;50.862;4.320;2022-07-29T05:23:17;5.85;;;2.70;;
10761;SDS011;5433;50.862;4.320;2022-07-29T05:25:43;4.82;;;2.40;;
10761;SDS011;5433;50.862;4.320;2022-07-29T05:28:11;3.97;;;2.45;;
10761;SDS011;5433;50.862;4.320;2022-07-29T05:30:37;4.97;;;2.40;;
10761;SDS011;5433;50.862;4.320;2022-07-29T05:33:03;4.07;;;2.60;;
10761;SDS011;5433;50.862;4.320;2022-07-29T05:35:29;4.30;;;2.45;;
10761;SDS011;5433;50.862;4.320;2022-07-29T05:37:55;3.53;;;3.00;;
10761;SDS011;5433;50.862;4.320;2022-07-29T05:40:21;4.35;;;2.90;;
10761;SDS011;5433;50.862;4.320;2022-07-29T05:42:47;4.18;;;3.00;;
10761;SDS011;5433;50.862;4.320;2022-07-29T05:45:13;4.50;;;2.72;;
10761;SDS011;5433;50.862;4.320;2022-07-29T05:47:39;4.70;;;3.00;;
10761;SDS011;5433;50.862;4.320;2022-07-29T05:50:05;4.97;;;3.50;;
10761;SDS011;5433;50.862;4.320;2022-07-29T05:52:32;4.53;;;2.80;;
10761;SDS011;5433;50.862;4.320;2022-07-29T05:54:58;3.83;;;2.63;;
10761;SDS011;5433;50.862;4.320;2022-07-29T05:57:27;4.50;;;2.95;;
10761;SDS011;5433;50.862;4.320;2022-07-29T05:59:53;6.65;;;2.80;;
10761;SDS011;5433;50.862;4.320;2022-07-29T06:02:19;2.90;;;2.58;;
10761;SDS011;5433;50.862;4.320;2022-07-29T06:04:45;5.10;;;2.70;;
10761;SDS011;5433;50.862;4.320;2022-07-29T06:07:11;5.80;;;3.08;;
10761;SDS011;5433;50.862;4.320;2022-07-29T06:09:38;5.53;;;2.80;;
10761;SDS011;5433;50.862;4.320;2022-07-29T06:12:04;6.65;;;3.00;;
10761;SDS011;5433;50.862;4.320;2022-07-29T06:14:33;4.07;;;3.00;;
10761;SDS011;5433;50.862;4.320;2022-07-29T06:17:00;5.43;;;3.10;;
10761;SDS011;5433;50.862;4.320;2022-07-29T06:19:26;3.92;;;2.95;;
10761;SDS011;5433;50.862;4.320;2022-07-29T06:21:52;5.20;;;3.03;;
10761;SDS011;5433;50.862;4.320;2022-07-29T06:24:18;3.92;;;3.13;;
10761;SDS011;5433;50.862;4.320;2022-07-29T06:26:44;7.18;;;3.30;;
10761;SDS011;5433;50.862;4.320;2022-07-29T06:29:10;8.25;;;2.97;;
10761;SDS011;5433;50.862;4.320;2022-07-29T06:31:37;7.10;;;3.35;;
10761;SDS011;5433;50.862;4.320;2022-07-29T06:34:03;4.18;;;3.08;;
10761;SDS011;5433;50.862;4.320;2022-07-29T06:36:29;6.10;;;3.50;;
10761;SDS011;5433;50.862;4.320;2022-07-29T06:38:55;8.63;;;3.22;;
10761;SDS011;5433;50.862;4.320;2022-07-29T06:41:22;6.50;;;3.45;;
10761;SDS011;5433;50.862;4.320;2022-07-29T06:43:48;5.32;;;3.53;;
10761;SDS011;5433;50.862;4.320;2022-07-29T06:46:17;4.68;;;3.33;;
10761;SDS011;5433;50.862;4.320;2022-07-29T06:48:43;5.30;;;3.40;;
10761;SDS011;5433;50.862;4.320;2022-07-29T06:51:10;4.90;;;3.70;;
10761;SDS011;5433;50.862;4.320;2022-07-29T06:53:39;5.63;;;3.45;;
10761;SDS011;5433;50.862;4.320;2022-07-29T06:56:05;6.13;;;3.63;;
10761;SDS011;5433;50.862;4.320;2022-07-29T06:58:34;4.18;;;3.13;;
10761;SDS011;5433;50.862;4.320;2022-07-29T07:01:01;6.20;;;3.83;;
10761;SDS011;5433;50.862;4.320;2022-07-29T07:03:27;5.25;;;3.00;;
10761;SDS011;5433;50.862;4.320;2022-07-29T07:05:53;4.38;;;2.95;;
10761;SDS011;5433;50.862;4.320;2022-07-29T07:08:23;9.10;;;3.90;;
10761;SDS011;5433;50.862;4.320;2022-07-29T07:10:55;5.38;;;3.15;;
10761;SDS011;5433;50.862;4.320;2022-07-29T07:13:22;4.20;;;3.28;;
10761;SDS011;5433;50.862;4.320;2022-07-29T07:15:48;7.82;;;3.33;;
10761;SDS011;5433;50.862;4.320;2022-07-29T07:18:14;4.82;;;3.58;;
10761;SDS011;5433;50.862;4.320;2022-07-29T07:20:41;4.22;;;3.13;;
10761;SDS011;5433;50.862;4.320;2022-07-29T07:23:07;6.35;;;3.28;;
10761;SDS011;5433;50.862;4.320;2022-07-29T07:25:33;4.30;;;3.05;;
10761;SDS011;5433;50.862;4.320;2022-07-29T07:28:00;5.00;;;3.10;;
10761;SDS011;5433;50.862;4.320;2022-07-29T07:30:26;7.38;;;3.47;;
10761;SDS011;5433;50.862;4.320;2022-07-29T07:32:55;3.92;;;3.00;;
10761;SDS011;5433;50.862;4.320;2022-07-29T07:35:21;4.40;;;3.55;;
10761;SDS011;5433;50.862;4.320;2022-07-29T07:37:47;7.78;;;3.47;;
10761;SDS011;5433;50.862;4.320;2022-07-29T07:40:13;4.38;;;3.10;;
10761;SDS011;5433;50.862;4.320;2022-07-29T07:42:40;4.78;;;3.08;;
10761;SDS011;5433;50.862;4.320;2022-07-29T07:45:07;4.90;;;3.13;;
10761;SDS011;5433;50.862;4.320;2022-07-29T07:47:35;5.10;;;3.13;;
10761;SDS011;5433;50.862;4.320;2022-07-29T07:50:01;5.45;;;3.10;;
10761;SDS011;5433;50.862;4.320;2022-07-29T07:52:27;5.85;;;3.13;;
10761;SDS011;5433;50.862;4.320;2022-07-29T07:54:53;3.50;;;3.20;;
10761;SDS011;5433;50.862;4.320;2022-07-29T07:57:20;4.75;;;3.10;;
10761;SDS011;5433;50.862;4.320;2022-07-29T07:59:46;4.22;;;3.03;;
10761;SDS011;5433;50.862;4.320;2022-07-29T08:02:15;3.85;;;2.90;;
10761;SDS011;5433;50.862;4.320;2022-07-29T08:04:41;4.05;;;2.80;;
10761;SDS011;5433;50.862;4.320;2022-07-29T08:07:09;4.45;;;2.95;;
10761;SDS011;5433;50.862;4.320;2022-07-29T08:09:35;5.78;;;3.13;;
10761;SDS011;5433;50.862;4.320;2022-07-29T08:12:01;4.82;;;3.03;;
10761;SDS011;5433;50.862;4.320;2022-07-29T08:14:29;3.90;;;2.72;;
10761;SDS011;5433;50.862;4.320;2022-07-29T08:16:55;5.13;;;3.00;;
10761;SDS011;5433;50.862;4.320;2022-07-29T08:19:23;4.80;;;2.85;;
10761;SDS011;5433;50.862;4.320;2022-07-29T08:21:49;4.22;;;2.70;;
10761;SDS011;5433;50.862;4.320;2022-07-29T08:24:17;7.03;;;2.60;;
10761;SDS011;5433;50.862;4.320;2022-07-29T08:27:02;6.57;;;3.42;;
10761;SDS011;5433;50.862;4.320;2022-07-29T08:29:34;4.15;;;2.80;;
10761;SDS011;5433;50.862;4.320;2022-07-29T08:32:16;5.38;;;2.67;;
10761;SDS011;5433;50.862;4.320;2022-07-29T08:34:51;2.95;;;2.65;;
10761;SDS011;5433;50.862;4.320;2022-07-29T08:37:21;7.00;;;2.70;;
10761;SDS011;5433;50.862;4.320;2022-07-29T08:39:50;2.80;;;2.55;;
10761;SDS011;5433;50.862;4.320;2022-07-29T08:42:18;2.75;;;2.33;;
10761;SDS011;5433;50.862;4.320;2022-07-29T08:44:50;3.72;;;2.65;;
10761;SDS011;5433;50.862;4.320;2022-07-29T08:47:27;5.28;;;2.88;;
10761;SDS011;5433;50.862;4.320;2022-07-29T08:49:53;4.80;;;2.95;;
10761;SDS011;5433;50.862;4.320;2022-07-29T08:52:24;6.75;;;3.22;;
10761;SDS011;5433;50.862;4.320;2022-07-29T08:54:53;3.72;;;2.83;;
10761;SDS011;5433;50.862;4.320;2022-07-29T08:57:31;4.45;;;2.92;;
10761;SDS011;5433;50.862;4.320;2022-07-29T09:00:01;6.05;;;2.90;;
10761;SDS011;5433;50.862;4.320;2022-07-29T09:02:29;3.70;;;2.92;;
10761;SDS011;5433;50.862;4.320;2022-07-29T09:05:10;3.38;;;2.58;;
10761;SDS011;5433;50.862;4.320;2022-07-29T09:07:41;5.15;;;2.63;;
10761;SDS011;5433;50.862;4.320;2022-07-29T09:10:16;3.53;;;2.40;;
10761;SDS011;5433;50.862;4.320;2022-07-29T09:12:42;3.53;;;2.65;;
10761;SDS011;5433;50.862;4.320;2022-07-29T09:15:11;6.35;;;2.60;;
10761;SDS011;5433;50.862;4.320;2022-07-29T09:17:45;4.00;;;2.47;;
10761;SDS011;5433;50.862;4.320;2022-07-29T09:20:12;3.45;;;3.10;;
10761;SDS011;5433;50.862;4.320;2022-07-29T09:22:44;4.53;;;2.78;;
10761;SDS011;5433;50.862;4.320;2022-07-29T09:28:19;4.13;;;2.72;;
10761;SDS011;5433;50.862;4.320;2022-07-29T09:30:58;4.75;;;3.00;;
10761;SDS011;5433;50.862;4.320;2022-07-29T09:33:30;5.28;;;2.63;;
10761;SDS011;5433;50.862;4.320;2022-07-29T09:39:35;4.15;;;2.70;;
10761;SDS011;5433;50.862;4.320;2022-07-29T09:48:14;5.68;;;2.85;;
10761;SDS011;5433;50.862;4.320;2022-07-29T09:50:42;6.28;;;2.50;;
10761;SDS011;5433;50.862;4.320;2022-07-29T09:53:17;6.00;;;2.55;;
10761;SDS011;5433;50.862;4.320;2022-07-29T09:55:58;6.43;;;2.28;;
10761;SDS011;5433;50.862;4.320;2022-07-29T09:58:24;3.95;;;2.28;;
10761;SDS011;5433;50.862;4.320;2022-07-29T10:00:50;6.05;;;2.20;;
10761;SDS011;5433;50.862;4.320;2022-07-29T10:03:17;4.18;;;2.10;;
10761;SDS011;5433;50.862;4.320;2022-07-29T10:05:44;6.07;;;2.55;;
10761;SDS011;5433;50.862;4.320;2022-07-29T10:08:13;4.85;;;2.33;;
10761;SDS011;5433;50.862;4.320;2022-07-29T10:10:41;4.32;;;2.70;;
10761;SDS011;5433;50.862;4.320;2022-07-29T10:13:17;6.28;;;2.63;;
10761;SDS011;5433;50.862;4.320;2022-07-29T10:15:44;6.55;;;2.40;;
10761;SDS011;5433;50.862;4.320;2022-07-29T10:18:11;2.60;;;2.10;;
10761;SDS011;5433;50.862;4.320;2022-07-29T10:20:38;3.20;;;2.15;;
10761;SDS011;5433;50.862;4.320;2022-07-29T10:23:05;3.92;;;2.22;;
10761;SDS011;5433;50.862;4.320;2022-07-29T10:25:32;3.38;;;2.60;;
10761;SDS011;5433;50.862;4.320;2022-07-29T10:28:05;5.82;;;3.10;;
10761;SDS011;5433;50.862;4.320;2022-07-29T10:30:31;5.20;;;2.80;;
10761;SDS011;5433;50.862;4.320;2022-07-29T10:43:54;4.57;;;3.50;;
10761;SDS011;5433;50.862;4.320;2022-07-29T10:46:21;4.75;;;2.92;;
10761;SDS011;5433;50.862;4.320;2022-07-29T10:54:35;4.28;;;2.55;;
10761;SDS011;5433;50.862;4.320;2022-07-29T10:57:22;6.22;;;2.42;;
10761;SDS011;5433;50.862;4.320;2022-07-29T11:05:06;3.33;;;2.13;;
10761;SDS011;5433;50.862;4.320;2022-07-29T11:07:33;4.85;;;1.90;;
10761;SDS011;5433;50.862;4.320;2022-07-29T11:15:04;3.20;;;1.83;;
10761;SDS011;5433;50.862;4.320;2022-07-29T11:18:17;3.20;;;1.85;;
10761;SDS011;5433;50.862;4.320;2022-07-29T11:20:37;5.72;;;3.13;;
10761;SDS011;5433;50.862;4.320;2022-07-29T11:28:34;8.25;;;2.65;;
10761;SDS011;5433;50.862;4.320;2022-07-29T11:31:03;4.82;;;3.03;;
10761;SDS011;5433;50.862;4.320;2022-07-29T11:33:32;6.13;;;3.50;;
10761;SDS011;5433;50.862;4.320;2022-07-29T11:36:08;5.63;;;3.22;;
10761;SDS011;5433;50.862;4.320;2022-07-29T11:38:35;3.85;;;2.75;;
10761;SDS011;5433;50.862;4.320;2022-07-29T11:43:47;4.20;;;3.00;;
10761;SDS011;5433;50.862;4.320;2022-07-29T11:46:13;5.50;;;3.30;;
10761;SDS011;5433;50.862;4.320;2022-07-29T11:48:42;6.60;;;4.20;;
10761;SDS011;5433;50.862;4.320;2022-07-29T11:51:09;5.80;;;3.35;;
10761;SDS011;5433;50.862;4.320;2022-07-29T11:53:39;6.28;;;3.40;;
10761;SDS011;5433;50.862;4.320;2022-07-29T11:56:07;5.95;;;3.38;;
10761;SDS011;5433;50.862;4.320;2022-07-29T11:58:34;4.38;;;3.08;;
10761;SDS011;5433;50.862;4.320;2022-07-29T12:01:00;5.53;;;2.70;;
10761;SDS011;5433;50.862;4.320;2022-07-29T12:03:27;5.57;;;2.70;;
10761;SDS011;5433;50.862;4.320;2022-07-29T12:05:53;5.55;;;2.40;;
10761;SDS011;5433;50.862;4.320;2022-07-29T12:08:20;4.30;;;2.50;;
10761;SDS011;5433;50.862;4.320;2022-07-29T12:10:48;4.07;;;2.45;;
10761;SDS011;5433;50.862;4.320;2022-07-29T12:13:15;4.93;;;2.65;;
10761;SDS011;5433;50.862;4.320;2022-07-29T12:15:41;5.93;;;3.05;;
10761;SDS011;5433;50.862;4.320;2022-07-29T12:18:13;4.93;;;2.65;;
10761;SDS011;5433;50.862;4.320;2022-07-29T12:20:39;5.00;;;2.60;;
10761;SDS011;5433;50.862;4.320;2022-07-29T12:23:06;7.05;;;3.60;;
10761;SDS011;5433;50.862;4.320;2022-07-29T12:25:33;4.88;;;2.97;;
10761;SDS011;5433;50.862;4.320;2022-07-29T12:28:06;6.70;;;3.25;;
10761;SDS011;5433;50.862;4.320;2022-07-29T12:30:51;4.75;;;3.45;;
10761;SDS011;5433;50.862;4.320;2022-07-29T12:33:18;5.57;;;3.45;;
10761;SDS011;5433;50.862;4.320;2022-07-29T12:35:46;3.65;;;2.80;;
10761;SDS011;5433;50.862;4.320;2022-07-29T12:38:13;6.65;;;2.90;;
10761;SDS011;5433;50.862;4.320;2022-07-29T12:40:39;5.63;;;2.50;;
10761;SDS011;5433;50.862;4.320;2022-07-29T12:45:35;4.72;;;2.65;;
10761;SDS011;5433;50.862;4.320;2022-07-29T12:48:01;4.50;;;2.75;;
10761;SDS011;5433;50.862;4.320;2022-07-29T12:50:27;3.40;;;2.78;;
10761;SDS011;5433;50.862;4.320;2022-07-29T12:52:53;3.78;;;2.30;;
10761;SDS011;5433;50.862;4.320;2022-07-29T13:01:09;4.28;;;2.25;;
10761;SDS011;5433;50.862;4.320;2022-07-29T13:03:43;3.40;;;2.10;;
10761;SDS011;5433;50.862;4.320;2022-07-29T13:09:14;3.80;;;1.90;;
10761;SDS011;5433;50.862;4.320;2022-07-29T13:11:44;4.35;;;2.05;;
10761;SDS011;5433;50.862;4.320;2022-07-29T13:14:11;3.63;;;2.10;;
10761;SDS011;5433;50.862;4.320;2022-07-29T13:17:00;4.38;;;2.10;;
10761;SDS011;5433;50.862;4.320;2022-07-29T13:19:32;3.90;;;2.40;;
10761;SDS011;5433;50.862;4.320;2022-07-29T13:21:58;4.10;;;2.20;;
10761;SDS011;5433;50.862;4.320;2022-07-29T13:24:24;2.05;;;1.85;;
10761;SDS011;5433;50.862;4.320;2022-07-29T13:26:50;3.55;;;2.15;;
10761;SDS011;5433;50.862;4.320;2022-07-29T13:29:16;3.38;;;1.80;;
10761;SDS011;5433;50.862;4.320;2022-07-29T13:31:42;2.95;;;2.03;;
10761;SDS011;5433;50.862;4.320;2022-07-29T13:34:09;2.97;;;2.00;;
10761;SDS011;5433;50.862;4.320;2022-07-29T13:36:35;5.45;;;1.80;;
10761;SDS011;5433;50.862;4.320;2022-07-29T13:39:02;3.55;;;2.00;;
10761;SDS011;5433;50.862;4.320;2022-07-29T13:41:28;3.78;;;1.88;;
10761;SDS011;5433;50.862;4.320;2022-07-29T13:43:54;5.28;;;2.20;;
10761;SDS011;5433;50.862;4.320;2022-07-29T13:46:20;2.65;;;2.10;;
10761;SDS011;5433;50.862;4.320;2022-07-29T13:48:46;4.72;;;2.20;;
10761;SDS011;5433;50.862;4.320;2022-07-29T13:51:12;3.22;;;1.92;;
10761;SDS011;5433;50.862;4.320;2022-07-29T13:53:38;4.22;;;2.00;;
10761;SDS011;5433;50.862;4.320;2022-07-29T13:56:04;3.95;;;2.00;;
10761;SDS011;5433;50.862;4.320;2022-07-29T13:58:31;3.63;;;1.98;;
10761;SDS011;5433;50.862;4.320;2022-07-29T14:00:57;5.93;;;1.73;;
10761;SDS011;5433;50.862;4.320;2022-07-29T14:03:23;3.00;;;1.77;;
10761;SDS011;5433;50.862;4.320;2022-07-29T14:05:50;4.15;;;2.28;;
10761;SDS011;5433;50.862;4.320;2022-07-29T14:08:16;2.95;;;2.30;;
10761;SDS011;5433;50.862;4.320;2022-07-29T14:10:42;3.13;;;2.13;;
10761;SDS011;5433;50.862;4.320;2022-07-29T14:13:08;4.72;;;2.10;;
10761;SDS011;5433;50.862;4.320;2022-07-29T14:15:34;3.88;;;2.10;;
10761;SDS011;5433;50.862;4.320;2022-07-29T14:18:00;4.95;;;2.05;;
10761;SDS011;5433;50.862;4.320;2022-07-29T14:20:26;3.92;;;2.05;;
10761;SDS011;5433;50.862;4.320;2022-07-29T14:22:54;4.63;;;2.20;;
10761;SDS011;5433;50.862;4.320;2022-07-29T14:25:21;3.35;;;2.00;;
10761;SDS011;5433;50.862;4.320;2022-07-29T14:27:47;4.40;;;1.90;;
10761;SDS011;5433;50.862;4.320;2022-07-29T14:30:13;3.05;;;1.80;;
10761;SDS011;5433;50.862;4.320;2022-07-29T14:32:39;4.95;;;2.10;;
10761;SDS011;5433;50.862;4.320;2022-07-29T14:35:05;4.32;;;1.98;;
10761;SDS011;5433;50.862;4.320;2022-07-29T14:37:31;5.68;;;2.00;;
10761;SDS011;5433;50.862;4.320;2022-07-29T14:39:57;3.13;;;1.80;;
10761;SDS011;5433;50.862;4.320;2022-07-29T14:42:27;5.07;;;1.92;;
10761;SDS011;5433;50.862;4.320;2022-07-29T14:44:53;3.88;;;2.00;;
10761;SDS011;5433;50.862;4.320;2022-07-29T14:47:19;3.25;;;1.80;;
10761;SDS011;5433;50.862;4.320;2022-07-29T14:49:46;4.32;;;1.83;;
10761;SDS011;5433;50.862;4.320;2022-07-29T14:52:12;3.03;;;1.90;;
10761;SDS011;5433;50.862;4.320;2022-07-29T14:54:38;2.58;;;2.05;;
10761;SDS011;5433;50.862;4.320;2022-07-29T14:57:04;4.50;;;1.92;;
10761;SDS011;5433;50.862;4.320;2022-07-29T14:59:31;5.35;;;2.08;;
10761;SDS011;5433;50.862;4.320;2022-07-29T15:01:57;2.47;;;1.90;;
10761;SDS011;5433;50.862;4.320;2022-07-29T15:04:23;3.25;;;1.98;;
10761;SDS011;5433;50.862;4.320;2022-07-29T15:06:50;4.70;;;2.08;;
10761;SDS011;5433;50.862;4.320;2022-07-29T15:09:16;6.35;;;1.90;;
10761;SDS011;5433;50.862;4.320;2022-07-29T15:11:43;2.92;;;2.05;;
10761;SDS011;5433;50.862;4.320;2022-07-29T15:14:09;4.45;;;2.20;;
10761;SDS011;5433;50.862;4.320;2022-07-29T15:16:36;3.97;;;2.33;;
10761;SDS011;5433;50.862;4.320;2022-07-29T15:19:02;2.90;;;2.10;;
10761;SDS011;5433;50.862;4.320;2022-07-29T15:21:28;4.47;;;2.50;;
10761;SDS011;5433;50.862;4.320;2022-07-29T15:23:54;5.28;;;2.65;;
10761;SDS011;5433;50.862;4.320;2022-07-29T15:26:21;4.97;;;2.67;;
10761;SDS011;5433;50.862;4.320;2022-07-29T15:28:47;3.38;;;3.08;;
10761;SDS011;5433;50.862;4.320;2022-07-29T15:31:13;3.20;;;2.75;;
10761;SDS011;5433;50.862;4.320;2022-07-29T15:33:39;4.07;;;2.80;;
10761;SDS011;5433;50.862;4.320;2022-07-29T15:36:05;5.93;;;2.90;;
10761;SDS011;5433;50.862;4.320;2022-07-29T15:38:31;3.50;;;2.33;;
10761;SDS011;5433;50.862;4.320;2022-07-29T15:40:58;7.30;;;2.78;;
10761;SDS011;5433;50.862;4.320;2022-07-29T15:43:24;3.30;;;2.60;;
10761;SDS011;5433;50.862;4.320;2022-07-29T15:45:50;3.78;;;2.75;;
10761;SDS011;5433;50.862;4.320;2022-07-29T15:48:37;4.15;;;2.70;;
10761;SDS011;5433;50.862;4.320;2022-07-29T15:51:03;3.83;;;2.75;;
10761;SDS011;5433;50.862;4.320;2022-07-29T15:53:29;3.85;;;2.65;;
10761;SDS011;5433;50.862;4.320;2022-07-29T15:55:55;3.20;;;2.80;;
10761;SDS011;5433;50.862;4.320;2022-07-29T15:58:21;3.55;;;2.85;;
10761;SDS011;5433;50.862;4.320;2022-07-29T16:00:48;3.47;;;2.60;;
10761;SDS011;5433;50.862;4.320;2022-07-29T16:03:14;4.85;;;3.10;;
10761;SDS011;5433;50.862;4.320;2022-07-29T16:05:40;4.78;;;2.80;;
10761;SDS011;5433;50.862;4.320;2022-07-29T16:08:06;3.60;;;2.60;;
10761;SDS011;5433;50.862;4.320;2022-07-29T16:10:32;3.90;;;2.83;;
10761;SDS011;5433;50.862;4.320;2022-07-29T16:12:58;4.00;;;3.03;;